sensor_id;sensor_type;location;lat;lon;timestamp;pressure;altitude;pressure_sealevel;temperature;humidity
5814;BME280;2933;52.302;8.134;2023-05-22T00:00:54;100488.91;;;18.20;100.00
5814;BME280;2933;52.302;8.134;2023-05-22T00:05:56;100479.28;;;18.29;100.00
5814;BME280;2933;52.302;8.134;2023-05-22T00:11:01;100481.09;;;18.28;100.00
5814;BME280;2933;52.302;8.134;2023-05-22T00:16:02;100496.22;;;18.46;100.00
5814;BME280;2933;52.302;8.134;2023-05-22T00:21:04;100480.66;;;18.43;100.00
5814;BME280;2933;52.302;8.134;2023-05-22T00:26:07;100480.22;;;18.37;100.00
5814;BME280;2933;52.302;8.134;2023-05-22T00:31:08;100474.41;;;18.34;100.00
5814;BME280;2933;52.302;8.134;2023-05-22T00:36:10;100469.28;;;18.22;100.00
5814;BME280;2933;52.302;8.134;2023-05-22T00:41:13;100464.19;;;18.01;100.00
5814;BME280;2933;52.302;8.134;2023-05-22T00:46:15;100469.19;;;17.85;100.00
5814;BME280;2933;52.302;8.134;2023-05-22T00:51:20;100479.06;;;17.83;100.00
5814;BME280;2933;52.302;8.134;2023-05-22T00:56:24;100472.25;;;17.80;100.00
5814;BME280;2933;52.302;8.134;2023-05-22T01:01:28;100493.25;;;18.01;100.00
5814;BME280;2933;52.302;8.134;2023-05-22T01:06:32;100495.09;;;18.01;100.00
5814;BME280;2933;52.302;8.134;2023-05-22T01:11:40;100494.38;;;17.99;100.00
5814;BME280;2933;52.302;8.134;2023-05-22T01:16:51;100472.81;;;17.93;100.00
5814;BME280;2933;52.302;8.134;2023-05-22T01:22:05;100473.25;;;17.69;100.00
5814;BME280;2933;52.302;8.134;2023-05-22T01:27:33;100483.28;;;17.66;100.00
5814;BME280;2933;52.302;8.134;2023-05-22T01:32:43;100453.81;;;17.51;100.00
5814;BME280;2933;52.302;8.134;2023-05-22T01:37:47;100452.13;;;17.40;100.00
5814;BME280;2933;52.302;8.134;2023-05-22T01:42:48;100444.22;;;16.79;100.00
5814;BME280;2933;52.302;8.134;2023-05-22T01:47:52;100447.72;;;16.80;100.00
5814;BME280;2933;52.302;8.134;2023-05-22T01:52:59;100448.53;;;16.80;100.00
5814;BME280;2933;52.302;8.134;2023-05-22T01:58:09;100437.97;;;16.71;100.00
5814;BME280;2933;52.302;8.134;2023-05-22T02:03:17;100451.53;;;16.97;100.00
5814;BME280;2933;52.302;8.134;2023-05-22T02:08:20;100408.38;;;16.57;100.00
5814;BME280;2933;52.302;8.134;2023-05-22T02:13:22;100397.84;;;16.57;100.00
5814;BME280;2933;52.302;8.134;2023-05-22T02:18:26;100397.81;;;16.47;100.00
5814;BME280;2933;52.302;8.134;2023-05-22T02:23:30;100384.22;;;16.62;100.00
5814;BME280;2933;52.302;8.134;2023-05-22T02:28:31;100393.44;;;16.77;100.00
5814;BME280;2933;52.302;8.134;2023-05-22T02:33:34;100387.13;;;16.59;100.00
5814;BME280;2933;52.302;8.134;2023-05-22T02:38:36;100376.72;;;16.47;100.00
5814;BME280;2933;52.302;8.134;2023-05-22T02:43:37;100365.31;;;16.47;100.00
5814;BME280;2933;52.302;8.134;2023-05-22T02:48:40;100363.00;;;16.63;100.00
5814;BME280;2933;52.302;8.134;2023-05-22T02:53:42;100363.44;;;16.69;100.00
5814;BME280;2933;52.302;8.134;2023-05-22T02:58:43;100349.53;;;16.67;100.00
5814;BME280;2933;52.302;8.134;2023-05-22T03:03:46;100346.16;;;16.35;100.00
5814;BME280;2933;52.302;8.134;2023-05-22T03:08:48;100336.13;;;16.29;100.00
5814;BME280;2933;52.302;8.134;2023-05-22T03:13:50;100338.06;;;16.27;100.00
5814;BME280;2933;52.302;8.134;2023-05-22T03:19:06;100347.97;;;16.44;100.00
5814;BME280;2933;52.302;8.134;2023-05-22T03:24:07;100344.75;;;16.41;100.00
5814;BME280;2933;52.302;8.134;2023-05-22T03:29:10;100355.56;;;16.28;100.00
5814;BME280;2933;52.302;8.134;2023-05-22T03:34:13;100359.16;;;16.27;100.00
5814;BME280;2933;52.302;8.134;2023-05-22T03:39:15;100363.88;;;16.33;100.00
5814;BME280;2933;52.302;8.134;2023-05-22T03:44:17;100364.47;;;16.37;100.00
5814;BME280;2933;52.302;8.134;2023-05-22T03:49:20;100362.50;;;16.29;100.00
5814;BME280;2933;52.302;8.134;2023-05-22T03:54:21;100354.22;;;16.12;100.00
5814;BME280;2933;52.302;8.134;2023-05-22T03:59:23;100357.91;;;16.21;100.00
5814;BME280;2933;52.302;8.134;2023-05-22T04:04:26;100351.56;;;16.34;100.00
5814;BME280;2933;52.302;8.134;2023-05-22T04:09:30;100349.75;;;16.34;100.00
5814;BME280;2933;52.302;8.134;2023-05-22T04:14:33;100345.19;;;16.36;100.00
5814;BME280;2933;52.302;8.134;2023-05-22T04:19:36;100336.56;;;16.34;100.00
5814;BME280;2933;52.302;8.134;2023-05-22T04:24:37;100351.53;;;16.24;100.00
5814;BME280;2933;52.302;8.134;2023-05-22T04:29:39;100348.22;;;16.31;100.00
5814;BME280;2933;52.302;8.134;2023-05-22T04:34:42;100341.97;;;16.33;100.00
5814;BME280;2933;52.302;8.134;2023-05-22T04:39:45;100342.47;;;16.17;100.00
5814;BME280;2933;52.302;8.134;2023-05-22T04:44:46;100349.75;;;16.34;100.00
5814;BME280;2933;52.302;8.134;2023-05-22T04:49:49;100352.59;;;16.11;100.00
5814;BME280;2933;52.302;8.134;2023-05-22T04:54:51;100358.53;;;16.13;100.00
5814;BME280;2933;52.302;8.134;2023-05-22T04:59:54;100344.97;;;16.18;100.00
5814;BME280;2933;52.302;8.134;2023-05-22T05:04:57;100352.16;;;16.16;100.00
5814;BME280;2933;52.302;8.134;2023-05-22T05:09:59;100340.22;;;16.12;100.00
5814;BME280;2933;52.302;8.134;2023-05-22T05:15:00;100351.59;;;16.03;100.00
5814;BME280;2933;52.302;8.134;2023-05-22T05:20:05;100343.25;;;16.07;100.00
5814;BME280;2933;52.302;8.134;2023-05-22T05:25:07;100330.22;;;16.06;100.00
5814;BME280;2933;52.302;8.134;2023-05-22T05:30:09;100316.78;;;16.09;100.00
5814;BME280;2933;52.302;8.134;2023-05-22T05:35:12;100336.94;;;15.89;100.00
5814;BME280;2933;52.302;8.134;2023-05-22T05:40:13;100335.72;;;15.93;100.00
5814;BME280;2933;52.302;8.134;2023-05-22T05:45:15;100341.69;;;15.95;100.00
5814;BME280;2933;52.302;8.134;2023-05-22T05:50:18;100329.50;;;16.04;100.00
5814;BME280;2933;52.302;8.134;2023-05-22T05:55:20;100312.69;;;15.95;100.00
5814;BME280;2933;52.302;8.134;2023-05-22T06:00:21;100340.84;;;16.25;100.00
5814;BME280;2933;52.302;8.134;2023-05-22T06:05:24;100339.63;;;16.39;100.00
5814;BME280;2933;52.302;8.134;2023-05-22T06:10:26;100328.47;;;16.26;100.00
5814;BME280;2933;52.302;8.134;2023-05-22T06:15:27;100315.84;;;16.20;100.00
5814;BME280;2933;52.302;8.134;2023-05-22T06:20:31;100310.13;;;16.14;100.00
5814;BME280;2933;52.302;8.134;2023-05-22T06:25:33;100318.28;;;16.02;100.00
5814;BME280;2933;52.302;8.134;2023-05-22T06:30:35;100343.22;;;16.38;100.00
5814;BME280;2933;52.302;8.134;2023-05-22T06:35:38;100348.81;;;16.45;100.00
5814;BME280;2933;52.302;8.134;2023-05-22T06:40:40;100349.91;;;16.42;100.00
5814;BME280;2933;52.302;8.134;2023-05-22T06:45:41;100350.59;;;16.44;100.00
5814;BME280;2933;52.302;8.134;2023-05-22T06:50:44;100349.00;;;16.22;100.00
5814;BME280;2933;52.302;8.134;2023-05-22T06:55:46;100355.94;;;16.23;100.00
5814;BME280;2933;52.302;8.134;2023-05-22T07:00:47;100355.84;;;16.35;100.00
5814;BME280;2933;52.302;8.134;2023-05-22T07:05:52;100343.41;;;16.46;100.00
5814;BME280;2933;52.302;8.134;2023-05-22T07:10:56;100339.09;;;16.45;100.00
5814;BME280;2933;52.302;8.134;2023-05-22T07:15:58;100348.53;;;16.48;100.00
5814;BME280;2933;52.302;8.134;2023-05-22T07:21:01;100346.19;;;16.64;100.00
5814;BME280;2933;52.302;8.134;2023-05-22T07:26:02;100352.44;;;16.73;100.00
5814;BME280;2933;52.302;8.134;2023-05-22T07:31:04;100359.94;;;16.68;100.00
5814;BME280;2933;52.302;8.134;2023-05-22T07:36:07;100360.78;;;16.69;100.00
5814;BME280;2933;52.302;8.134;2023-05-22T07:41:08;100372.31;;;16.77;100.00
5814;BME280;2933;52.302;8.134;2023-05-22T07:46:10;100367.03;;;16.77;100.00
5814;BME280;2933;52.302;8.134;2023-05-22T07:51:13;100361.91;;;16.86;100.00
5814;BME280;2933;52.302;8.134;2023-05-22T07:56:14;100364.44;;;17.07;100.00
5814;BME280;2933;52.302;8.134;2023-05-22T08:01:16;100363.47;;;17.37;100.00
5814;BME280;2933;52.302;8.134;2023-05-22T08:06:19;100365.41;;;17.35;100.00
5814;BME280;2933;52.302;8.134;2023-05-22T08:11:22;100373.47;;;17.53;100.00
5814;BME280;2933;52.302;8.134;2023-05-22T08:16:25;100369.78;;;17.74;100.00
5814;BME280;2933;52.302;8.134;2023-05-22T08:21:28;100386.09;;;17.69;100.00
5814;BME280;2933;52.302;8.134;2023-05-22T08:26:32;100379.34;;;17.85;100.00
5814;BME280;2933;52.302;8.134;2023-05-22T08:31:33;100378.59;;;18.12;100.00
5814;BME280;2933;52.302;8.134;2023-05-22T08:36:36;100387.50;;;18.11;100.00
5814;BME280;2933;52.302;8.134;2023-05-22T08:41:38;100384.03;;;18.38;100.00
5814;BME280;2933;52.302;8.134;2023-05-22T08:46:39;100385.69;;;18.95;100.00
5814;BME280;2933;52.302;8.134;2023-05-22T08:51:46;100390.66;;;18.98;100.00
5814;BME280;2933;52.302;8.134;2023-05-22T08:56:48;100388.94;;;19.07;100.00
5814;BME280;2933;52.302;8.134;2023-05-22T09:01:52;100385.50;;;19.33;100.00
5814;BME280;2933;52.302;8.134;2023-05-22T09:06:55;100382.56;;;19.36;100.00
5814;BME280;2933;52.302;8.134;2023-05-22T09:11:57;100399.00;;;19.21;100.00
5814;BME280;2933;52.302;8.134;2023-05-22T09:16:58;100393.91;;;19.46;100.00
5814;BME280;2933;52.302;8.134;2023-05-22T09:22:02;100398.47;;;20.07;100.00
5814;BME280;2933;52.302;8.134;2023-05-22T09:27:05;100398.19;;;20.18;100.00
5814;BME280;2933;52.302;8.134;2023-05-22T09:32:12;100402.41;;;20.37;100.00
5814;BME280;2933;52.302;8.134;2023-05-22T09:37:15;100394.81;;;20.08;100.00
5814;BME280;2933;52.302;8.134;2023-05-22T09:42:18;100395.34;;;19.85;100.00
5814;BME280;2933;52.302;8.134;2023-05-22T09:47:19;100398.06;;;19.93;100.00
5814;BME280;2933;52.302;8.134;2023-05-22T09:52:23;100395.81;;;20.07;100.00
5814;BME280;2933;52.302;8.134;2023-05-22T09:57:26;100389.34;;;19.57;100.00
5814;BME280;2933;52.302;8.134;2023-05-22T10:02:28;100388.81;;;19.53;100.00
5814;BME280;2933;52.302;8.134;2023-05-22T10:07:35;100397.84;;;19.42;100.00
5814;BME280;2933;52.302;8.134;2023-05-22T10:12:40;100395.81;;;20.07;100.00
5814;BME280;2933;52.302;8.134;2023-05-22T10:17:43;100405.16;;;20.19;100.00
5814;BME280;2933;52.302;8.134;2023-05-22T10:22:46;100406.22;;;20.34;100.00
5814;BME280;2933;52.302;8.134;2023-05-22T10:27:51;100394.72;;;20.69;100.00
5814;BME280;2933;52.302;8.134;2023-05-22T10:32:56;100395.47;;;20.95;100.00
5814;BME280;2933;52.302;8.134;2023-05-22T10:38:13;100402.09;;;20.99;100.00
5814;BME280;2933;52.302;8.134;2023-05-22T10:43:21;100384.03;;;21.11;100.00
5814;BME280;2933;52.302;8.134;2023-05-22T10:48:23;100374.59;;;21.58;100.00
5814;BME280;2933;52.302;8.134;2023-05-22T10:53:27;100376.56;;;21.40;100.00
5814;BME280;2933;52.302;8.134;2023-05-22T10:58:33;100369.88;;;21.85;100.00
5814;BME280;2933;52.302;8.134;2023-05-22T11:03:56;100366.00;;;22.04;100.00
5814;BME280;2933;52.302;8.134;2023-05-22T11:09:01;100367.16;;;22.02;100.00
5814;BME280;2933;52.302;8.134;2023-05-22T11:14:19;100361.59;;;22.28;100.00
5814;BME280;2933;52.302;8.134;2023-05-22T11:19:20;100372.63;;;22.17;100.00
5814;BME280;2933;52.302;8.134;2023-05-22T11:24:23;100366.34;;;22.49;100.00
5814;BME280;2933;52.302;8.134;2023-05-22T11:29:25;100359.50;;;22.78;100.00
5814;BME280;2933;52.302;8.134;2023-05-22T11:34:27;100361.34;;;23.01;96.91
5814;BME280;2933;52.302;8.134;2023-05-22T11:39:31;100357.31;;;23.28;100.00
5814;BME280;2933;52.302;8.134;2023-05-22T11:44:32;100359.22;;;23.19;93.80
5814;BME280;2933;52.302;8.134;2023-05-22T11:49:34;100351.78;;;23.30;94.25
5814;BME280;2933;52.302;8.134;2023-05-22T11:54:37;100350.78;;;23.31;90.65
5814;BME280;2933;52.302;8.134;2023-05-22T11:59:39;100344.09;;;23.12;92.09
5814;BME280;2933;52.302;8.134;2023-05-22T12:04:40;100333.56;;;23.71;94.82
5814;BME280;2933;52.302;8.134;2023-05-22T12:09:43;100334.56;;;23.55;91.39
5814;BME280;2933;52.302;8.134;2023-05-22T12:14:45;100336.16;;;24.10;91.22
5814;BME280;2933;52.302;8.134;2023-05-22T12:19:46;100328.78;;;23.67;83.99
5814;BME280;2933;52.302;8.134;2023-05-22T12:24:51;100333.47;;;24.46;85.03
5814;BME280;2933;52.302;8.134;2023-05-22T12:29:55;100332.78;;;24.38;87.50
5814;BME280;2933;52.302;8.134;2023-05-22T12:34:57;100335.16;;;25.12;86.94
5814;BME280;2933;52.302;8.134;2023-05-22T12:40:03;100333.16;;;24.71;81.07
5814;BME280;2933;52.302;8.134;2023-05-22T12:45:05;100323.94;;;24.95;83.10
5814;BME280;2933;52.302;8.134;2023-05-22T12:50:07;100320.09;;;24.61;82.10
5814;BME280;2933;52.302;8.134;2023-05-22T12:55:11;100318.00;;;24.57;86.73
5814;BME280;2933;52.302;8.134;2023-05-22T13:00:13;100319.84;;;24.99;79.56
5814;BME280;2933;52.302;8.134;2023-05-22T13:05:14;100319.38;;;24.89;79.52
5814;BME280;2933;52.302;8.134;2023-05-22T13:10:17;100312.13;;;25.11;76.70
5814;BME280;2933;52.302;8.134;2023-05-22T13:15:19;100319.00;;;25.21;76.12
5814;BME280;2933;52.302;8.134;2023-05-22T13:20:20;100317.44;;;25.61;76.88
5814;BME280;2933;52.302;8.134;2023-05-22T13:25:24;100315.66;;;25.69;75.51
5814;BME280;2933;52.302;8.134;2023-05-22T13:30:25;100319.16;;;25.76;72.12
5814;BME280;2933;52.302;8.134;2023-05-22T13:35:27;100309.09;;;25.78;68.79
5814;BME280;2933;52.302;8.134;2023-05-22T13:40:30;100309.38;;;25.26;68.26
5814;BME280;2933;52.302;8.134;2023-05-22T13:45:31;100304.06;;;25.61;67.62
5814;BME280;2933;52.302;8.134;2023-05-22T13:50:33;100305.84;;;26.38;66.22
5814;BME280;2933;52.302;8.134;2023-05-22T13:55:36;100294.44;;;26.16;70.29
5814;BME280;2933;52.302;8.134;2023-05-22T14:00:37;100286.91;;;26.53;69.83
5814;BME280;2933;52.302;8.134;2023-05-22T14:05:39;100278.84;;;26.33;71.13
5814;BME280;2933;52.302;8.134;2023-05-22T14:10:42;100283.84;;;26.69;65.73
5814;BME280;2933;52.302;8.134;2023-05-22T14:15:43;100280.94;;;26.37;66.92
5814;BME280;2933;52.302;8.134;2023-05-22T14:20:46;100266.31;;;26.47;64.98
5814;BME280;2933;52.302;8.134;2023-05-22T14:25:49;100262.53;;;26.14;65.54
5814;BME280;2933;52.302;8.134;2023-05-22T14:30:51;100254.16;;;26.37;63.14
5814;BME280;2933;52.302;8.134;2023-05-22T14:35:52;100250.00;;;26.21;66.95
5814;BME280;2933;52.302;8.134;2023-05-22T14:40:55;100244.47;;;26.36;64.28
5814;BME280;2933;52.302;8.134;2023-05-22T14:45:57;100244.81;;;26.13;64.30
5814;BME280;2933;52.302;8.134;2023-05-22T14:50:59;100242.59;;;26.37;64.92
5814;BME280;2933;52.302;8.134;2023-05-22T14:56:16;100246.06;;;26.10;65.47
5814;BME280;2933;52.302;8.134;2023-05-22T15:01:18;100253.69;;;26.13;64.91
5814;BME280;2933;52.302;8.134;2023-05-22T15:06:19;100262.94;;;26.11;64.94
5814;BME280;2933;52.302;8.134;2023-05-22T15:11:22;100259.06;;;25.72;64.14
5814;BME280;2933;52.302;8.134;2023-05-22T15:16:24;100247.03;;;25.96;65.65
5814;BME280;2933;52.302;8.134;2023-05-22T15:21:26;100246.91;;;26.24;67.39
5814;BME280;2933;52.302;8.134;2023-05-22T15:26:29;100243.84;;;26.34;65.52
5814;BME280;2933;52.302;8.134;2023-05-22T15:31:31;100232.13;;;26.49;63.51
5814;BME280;2933;52.302;8.134;2023-05-22T15:36:34;100234.47;;;25.96;70.43
5814;BME280;2933;52.302;8.134;2023-05-22T15:41:37;100232.72;;;26.37;65.93
5814;BME280;2933;52.302;8.134;2023-05-22T15:46:39;100234.59;;;26.64;64.50
5814;BME280;2933;52.302;8.134;2023-05-22T15:51:40;100237.94;;;26.86;60.30
5814;BME280;2933;52.302;8.134;2023-05-22T15:56:43;100235.88;;;26.81;64.32
5814;BME280;2933;52.302;8.134;2023-05-22T16:01:44;100224.03;;;26.15;69.03
5814;BME280;2933;52.302;8.134;2023-05-22T16:06:46;100225.09;;;25.72;69.87
5814;BME280;2933;52.302;8.134;2023-05-22T16:11:49;100219.16;;;25.77;68.45
5814;BME280;2933;52.302;8.134;2023-05-22T16:16:51;100221.16;;;25.61;69.41
5814;BME280;2933;52.302;8.134;2023-05-22T16:21:52;100225.81;;;25.17;71.83
5814;BME280;2933;52.302;8.134;2023-05-22T16:26:57;100252.16;;;25.21;72.53
5814;BME280;2933;52.302;8.134;2023-05-22T16:31:59;100252.03;;;25.00;75.07
5814;BME280;2933;52.302;8.134;2023-05-22T16:37:00;100244.81;;;24.51;75.52
5814;BME280;2933;52.302;8.134;2023-05-22T16:42:04;100245.69;;;24.80;76.78
5814;BME280;2933;52.302;8.134;2023-05-22T16:47:06;100237.59;;;24.95;73.29
5814;BME280;2933;52.302;8.134;2023-05-22T16:52:07;100238.00;;;24.92;73.34
5814;BME280;2933;52.302;8.134;2023-05-22T16:57:10;100235.47;;;24.40;73.71
5814;BME280;2933;52.302;8.134;2023-05-22T17:02:12;100228.72;;;24.23;76.61
5814;BME280;2933;52.302;8.134;2023-05-22T17:07:13;100237.28;;;23.96;79.20
5814;BME280;2933;52.302;8.134;2023-05-22T17:12:16;100230.38;;;23.72;80.25
5814;BME280;2933;52.302;8.134;2023-05-22T17:17:18;100244.09;;;23.54;82.36
5814;BME280;2933;52.302;8.134;2023-05-22T17:22:19;100271.34;;;22.50;93.09
5814;BME280;2933;52.302;8.134;2023-05-22T17:27:22;100291.25;;;20.85;100.00
5814;BME280;2933;52.302;8.134;2023-05-22T17:32:24;100252.25;;;19.59;100.00
5814;BME280;2933;52.302;8.134;2023-05-22T17:37:27;100276.75;;;19.95;100.00
5814;BME280;2933;52.302;8.134;2023-05-22T17:42:31;100288.22;;;19.96;100.00
5814;BME280;2933;52.302;8.134;2023-05-22T17:47:32;100319.72;;;19.73;100.00
5814;BME280;2933;52.302;8.134;2023-05-22T17:52:34;100331.22;;;19.55;100.00
5814;BME280;2933;52.302;8.134;2023-05-22T17:57:37;100338.25;;;19.73;100.00
5814;BME280;2933;52.302;8.134;2023-05-22T18:02:39;100354.16;;;19.73;100.00
5814;BME280;2933;52.302;8.134;2023-05-22T18:07:40;100352.00;;;20.37;100.00
5814;BME280;2933;52.302;8.134;2023-05-22T18:12:43;100376.56;;;20.47;100.00
5814;BME280;2933;52.302;8.134;2023-05-22T18:17:45;100388.19;;;20.46;100.00
5814;BME280;2933;52.302;8.134;2023-05-22T18:22:46;100387.13;;;19.96;100.00
5814;BME280;2933;52.302;8.134;2023-05-22T18:27:49;100391.72;;;19.86;100.00
5814;BME280;2933;52.302;8.134;2023-05-22T18:32:51;100398.75;;;19.77;100.00
5814;BME280;2933;52.302;8.134;2023-05-22T18:37:52;100407.63;;;19.68;100.00
5814;BME280;2933;52.302;8.134;2023-05-22T18:42:55;100396.78;;;19.79;100.00
5814;BME280;2933;52.302;8.134;2023-05-22T18:47:57;100402.50;;;19.66;100.00
5814;BME280;2933;52.302;8.134;2023-05-22T18:52:58;100405.31;;;19.47;100.00
5814;BME280;2933;52.302;8.134;2023-05-22T18:58:01;100406.19;;;19.74;100.00
5814;BME280;2933;52.302;8.134;2023-05-22T19:03:04;100412.44;;;19.64;100.00
5814;BME280;2933;52.302;8.134;2023-05-22T19:08:05;100410.03;;;19.79;100.00
5814;BME280;2933;52.302;8.134;2023-05-22T19:13:08;100405.47;;;19.63;100.00
5814;BME280;2933;52.302;8.134;2023-05-22T19:18:10;100406.69;;;19.51;100.00
5814;BME280;2933;52.302;8.134;2023-05-22T19:23:11;100410.94;;;19.26;100.00
5814;BME280;2933;52.302;8.134;2023-05-22T19:28:14;100414.00;;;19.31;100.00
5814;BME280;2933;52.302;8.134;2023-05-22T19:33:16;100417.31;;;19.15;100.00
5814;BME280;2933;52.302;8.134;2023-05-22T19:38:17;100419.13;;;19.14;100.00
5814;BME280;2933;52.302;8.134;2023-05-22T19:43:20;100422.16;;;19.37;100.00
5814;BME280;2933;52.302;8.134;2023-05-22T19:48:22;100421.41;;;19.27;100.00
5814;BME280;2933;52.302;8.134;2023-05-22T19:53:24;100427.66;;;19.08;100.00
5814;BME280;2933;52.302;8.134;2023-05-22T19:58:27;100420.47;;;19.36;100.00
5814;BME280;2933;52.302;8.134;2023-05-22T20:03:29;100422.63;;;19.15;100.00
5814;BME280;2933;52.302;8.134;2023-05-22T20:08:30;100436.66;;;18.97;100.00
5814;BME280;2933;52.302;8.134;2023-05-22T20:13:33;100429.94;;;18.75;100.00
5814;BME280;2933;52.302;8.134;2023-05-22T20:18:35;100434.88;;;18.88;100.00
5814;BME280;2933;52.302;8.134;2023-05-22T20:23:37;100438.81;;;18.84;100.00
5814;BME280;2933;52.302;8.134;2023-05-22T20:28:40;100442.09;;;18.68;100.00
5814;BME280;2933;52.302;8.134;2023-05-22T20:33:42;100441.94;;;18.41;100.00
5814;BME280;2933;52.302;8.134;2023-05-22T20:38:43;100435.75;;;18.23;100.00
5814;BME280;2933;52.302;8.134;2023-05-22T20:43:46;100441.25;;;18.02;100.00
5814;BME280;2933;52.302;8.134;2023-05-22T20:48:48;100451.25;;;17.79;100.00
5814;BME280;2933;52.302;8.134;2023-05-22T20:53:49;100446.53;;;17.72;100.00
5814;BME280;2933;52.302;8.134;2023-05-22T20:58:53;100451.84;;;17.63;100.00
5814;BME280;2933;52.302;8.134;2023-05-22T21:03:55;100446.00;;;17.49;100.00
5814;BME280;2933;52.302;8.134;2023-05-22T21:08:56;100438.50;;;17.25;100.00
5814;BME280;2933;52.302;8.134;2023-05-22T21:14:01;100453.34;;;17.06;100.00
5814;BME280;2933;52.302;8.134;2023-05-22T21:19:03;100456.13;;;17.05;100.00
5814;BME280;2933;52.302;8.134;2023-05-22T21:24:06;100457.16;;;16.83;100.00
5814;BME280;2933;52.302;8.134;2023-05-22T21:29:09;100454.03;;;16.58;100.00
5814;BME280;2933;52.302;8.134;2023-05-22T21:34:10;100449.19;;;16.63;100.00
5814;BME280;2933;52.302;8.134;2023-05-22T21:39:12;100457.88;;;16.44;100.00
5814;BME280;2933;52.302;8.134;2023-05-22T21:44:15;100455.38;;;16.52;100.00
5814;BME280;2933;52.302;8.134;2023-05-22T21:49:17;100463.47;;;16.29;100.00
5814;BME280;2933;52.302;8.134;2023-05-22T21:54:19;100459.00;;;16.20;100.00
5814;BME280;2933;52.302;8.134;2023-05-22T21:59:21;100468.25;;;16.14;100.00
5814;BME280;2933;52.302;8.134;2023-05-22T22:04:23;100463.63;;;16.28;100.00
5814;BME280;2933;52.302;8.134;2023-05-22T22:09:24;100481.13;;;16.29;100.00
5814;BME280;2933;52.302;8.134;2023-05-22T22:14:27;100463.38;;;16.10;100.00
5814;BME280;2933;52.302;8.134;2023-05-22T22:19:29;100465.59;;;15.72;100.00
5814;BME280;2933;52.302;8.134;2023-05-22T22:24:30;100458.03;;;15.58;100.00
5814;BME280;2933;52.302;8.134;2023-05-22T22:29:33;100469.50;;;15.57;100.00
5814;BME280;2933;52.302;8.134;2023-05-22T22:34:35;100469.56;;;15.45;100.00
5814;BME280;2933;52.302;8.134;2023-05-22T22:39:36;100473.97;;;15.45;100.00
5814;BME280;2933;52.302;8.134;2023-05-22T22:44:39;100471.47;;;15.43;100.00
5814;BME280;2933;52.302;8.134;2023-05-22T22:49:41;100466.00;;;15.35;100.00
5814;BME280;2933;52.302;8.134;2023-05-22T22:54:42;100465.84;;;15.48;100.00
5814;BME280;2933;52.302;8.134;2023-05-22T22:59:45;100471.47;;;15.43;100.00
5814;BME280;2933;52.302;8.134;2023-05-22T23:04:47;100475.56;;;15.36;100.00
5814;BME280;2933;52.302;8.134;2023-05-22T23:09:50;100461.63;;;15.24;100.00
5814;BME280;2933;52.302;8.134;2023-05-22T23:14:52;100461.13;;;15.19;100.00
5814;BME280;2933;52.302;8.134;2023-05-22T23:19:54;100460.53;;;15.27;100.00
5814;BME280;2933;52.302;8.134;2023-05-22T23:24:56;100450.25;;;15.24;100.00
5814;BME280;2933;52.302;8.134;2023-05-22T23:29:59;100449.09;;;15.05;100.00
5814;BME280;2933;52.302;8.134;2023-05-22T23:35:00;100441.47;;;15.02;100.00
5814;BME280;2933;52.302;8.134;2023-05-22T23:40:02;100445.44;;;15.29;100.00
5814;BME280;2933;52.302;8.134;2023-05-22T23:45:07;100433.59;;;15.34;100.00
5814;BME280;2933;52.302;8.134;2023-05-22T23:50:09;100432.22;;;15.40;100.00
5814;BME280;2933;52.302;8.134;2023-05-22T23:55:11;100428.41;;;15.44;100.00
